createdAt,value
2016-07-16T00:00:09.593Z,12.9
2016-07-16T00:15:11.323Z,12.7
2016-07-16T00:30:17.855Z,12.6
2016-07-16T00:45:09.544Z,12.5
2016-07-16T01:00:09.258Z,12.4
2016-07-16T01:15:04.956Z,12.2
2016-07-16T01:30:09.600Z,12.1
2016-07-16T01:45:10.027Z,12
2016-07-16T02:00:06.967Z,11.8
2016-07-16T02:15:11.357Z,11.8
2016-07-16T02:30:11.201Z,11.7
2016-07-16T02:45:11.568Z,11.6
2016-07-16T03:00:09.559Z,11.5
2016-07-16T03:15:09.569Z,11.5
2016-07-16T03:30:09.623Z,11.5
2016-07-16T03:45:11.229Z,11.6
2016-07-16T04:00:11.188Z,11.6
2016-07-16T04:15:24.678Z,11.7
2016-07-16T04:30:04.990Z,11.9
2016-07-16T04:45:17.876Z,12.3
2016-07-16T05:00:09.580Z,12.6
2016-07-16T05:15:09.929Z,12.8
2016-07-16T05:30:09.579Z,13.1
2016-07-16T05:45:09.868Z,13.3
2016-07-16T06:00:09.674Z,13.3
2016-07-16T06:15:09.587Z,13.7
2016-07-16T06:30:17.799Z,14.2
2016-07-16T06:45:09.589Z,14.8
2016-07-16T07:00:09.632Z,15.6
2016-07-16T07:15:05.017Z,15.9
2016-07-16T07:30:05.029Z,16.1
2016-07-16T07:45:16.285Z,16.4
2016-07-16T08:00:07.025Z,16.6
2016-07-16T08:15:15.406Z,16.9
2016-07-16T08:30:07.043Z,17
2016-07-16T08:45:05.038Z,17.2
2016-07-16T09:00:09.980Z,17.5
2016-07-16T09:15:10.102Z,17.9
2016-07-16T09:30:11.727Z,18
2016-07-16T09:45:11.375Z,18.6
2016-07-16T10:00:11.388Z,18.7
2016-07-16T10:15:09.666Z,18.9
2016-07-16T10:30:05.074Z,19.1
2016-07-16T10:45:09.706Z,19.3
2016-07-16T11:00:09.812Z,19.1
2016-07-16T11:15:05.081Z,19
2016-07-16T11:30:05.150Z,19.2
2016-07-16T11:45:05.105Z,19.2
2016-07-16T12:00:07.113Z,19.3
2016-07-16T12:15:05.118Z,19.3
2016-07-16T12:30:05.159Z,19.5
2016-07-16T12:45:09.704Z,19.6
2016-07-16T13:00:09.716Z,19.4
2016-07-16T13:15:09.725Z,19.4
2016-07-16T13:30:09.768Z,19.4
2016-07-16T13:45:05.141Z,19.5
2016-07-16T14:00:05.154Z,19.7
2016-07-16T14:15:05.143Z,20.2
2016-07-16T14:30:09.771Z,19.9
2016-07-16T14:45:11.253Z,19.7
2016-07-16T15:00:07.144Z,19.5
2016-07-16T15:15:09.737Z,19.6
2016-07-16T15:30:10.151Z,19.7
2016-07-16T15:45:10.128Z,19.7
2016-07-16T16:00:11.495Z,19.7
2016-07-16T16:15:05.198Z,19.7
2016-07-16T16:30:18.114Z,19.7
2016-07-16T16:45:05.164Z,19.7
2016-07-16T17:00:05.217Z,19.6
2016-07-16T17:15:11.505Z,19.6
2016-07-16T17:30:05.186Z,19.5
2016-07-16T17:45:11.394Z,19.4
2016-07-16T18:00:09.826Z,19.3
2016-07-16T18:15:09.824Z,19.3
2016-07-16T18:30:05.194Z,19.3
2016-07-16T18:45:06.867Z,19.2
2016-07-16T19:00:09.857Z,19.2
2016-07-16T19:15:16.177Z,19.1
2016-07-16T19:30:05.225Z,19
2016-07-16T19:45:05.218Z,19
2016-07-16T20:00:22.460Z,18.9
2016-07-16T20:15:07.220Z,18.9
2016-07-16T20:30:11.435Z,18.8
2016-07-16T20:45:09.869Z,18.5
2016-07-16T21:00:09.834Z,18.4
2016-07-16T21:15:22.240Z,18.3
2016-07-16T21:30:09.905Z,18.2
2016-07-16T21:45:09.845Z,18.1
2016-07-16T22:00:09.846Z,18
2016-07-16T22:15:11.475Z,17.7
2016-07-16T22:30:16.153Z,17.6
2016-07-16T22:45:05.274Z,17.6
2016-07-16T23:00:09.893Z,17.5
2016-07-16T23:15:09.903Z,17.5
2016-07-16T23:30:12.352Z,17.5
2016-07-16T23:45:09.933Z,17.4
